Terminal Aerodrome Forecast
Issued by NWS Grand Junction, CO

Home | Current Version | Previous Version | Text Only | Print | Product List | Glossary On
Versions: 1 2 3 4 5 6 7 8 9 10 11 12 13 14 15 16 17 18 19 20 21 22 23 24 25 26 27 28 29 30 31 32 33 34 35 36 37 38 39
000
FTUS45 KGJT 260308 AAF
TAFGJT
TAF AMD
KGJT 260308Z 2603/2624 27016G25KT P6SM VCSH SCT100 BKN200
      TEMPO 2603/2604 VRB18G30KT P6SM -SHRA BKN100
     FM260400 12010KT P6SM SCT200
     FM261900 23008KT P6SM SCT150
     FM262300 30007KT P6SM SCT150=

USA.gov is the U.S. government's official web portal to all federal, state and local government web resources and services.